sensor_id;sensor_type;location;lat;lon;timestamp;temperature;humidity
22635;DHT22;11484;50.858;4.384;2024-02-23T00:01:36;7.40;99.90
22635;DHT22;11484;50.858;4.384;2024-02-23T00:04:02;7.40;99.90
22635;DHT22;11484;50.858;4.384;2024-02-23T00:06:28;7.30;99.90
22635;DHT22;11484;50.858;4.384;2024-02-23T00:08:55;7.10;99.90
22635;DHT22;11484;50.858;4.384;2024-02-23T00:11:22;7.10;99.90
22635;DHT22;11484;50.858;4.384;2024-02-23T00:13:48;7.10;99.90
22635;DHT22;11484;50.858;4.384;2024-02-23T00:16:13;7.00;99.90
22635;DHT22;11484;50.858;4.384;2024-02-23T00:18:39;7.00;99.90
22635;DHT22;11484;50.858;4.384;2024-02-23T00:21:06;7.00;99.90
22635;DHT22;11484;50.858;4.384;2024-02-23T00:23:35;7.00;99.90
22635;DHT22;11484;50.858;4.384;2024-02-23T00:26:01;7.00;99.90
22635;DHT22;11484;50.858;4.384;2024-02-23T00:28:30;6.90;99.90
22635;DHT22;11484;50.858;4.384;2024-02-23T00:30:56;7.00;99.90
22635;DHT22;11484;50.858;4.384;2024-02-23T00:33:21;7.00;99.90
22635;DHT22;11484;50.858;4.384;2024-02-23T00:35:47;6.80;99.90
22635;DHT22;11484;50.858;4.384;2024-02-23T00:38:13;6.90;99.90
22635;DHT22;11484;50.858;4.384;2024-02-23T00:40:38;6.90;99.90
22635;DHT22;11484;50.858;4.384;2024-02-23T00:43:04;7.00;99.90
22635;DHT22;11484;50.858;4.384;2024-02-23T00:45:30;7.10;99.90
22635;DHT22;11484;50.858;4.384;2024-02-23T00:47:56;7.10;99.90
22635;DHT22;11484;50.858;4.384;2024-02-23T00:50:23;7.00;99.90
22635;DHT22;11484;50.858;4.384;2024-02-23T00:52:51;7.00;99.90
22635;DHT22;11484;50.858;4.384;2024-02-23T00:55:18;7.00;99.90
22635;DHT22;11484;50.858;4.384;2024-02-23T00:57:43;6.90;99.90
22635;DHT22;11484;50.858;4.384;2024-02-23T01:00:09;6.90;99.90
22635;DHT22;11484;50.858;4.384;2024-02-23T01:02:35;6.90;99.90
22635;DHT22;11484;50.858;4.384;2024-02-23T01:05:01;6.90;99.90
22635;DHT22;11484;50.858;4.384;2024-02-23T01:07:30;6.90;99.90
22635;DHT22;11484;50.858;4.384;2024-02-23T01:09:56;7.00;99.90
22635;DHT22;11484;50.858;4.384;2024-02-23T01:12:22;7.00;99.90
22635;DHT22;11484;50.858;4.384;2024-02-23T01:14:48;6.90;99.90
22635;DHT22;11484;50.858;4.384;2024-02-23T01:17:14;6.80;99.90
22635;DHT22;11484;50.858;4.384;2024-02-23T01:19:41;6.60;99.90
22635;DHT22;11484;50.858;4.384;2024-02-23T01:22:08;6.50;99.90
22635;DHT22;11484;50.858;4.384;2024-02-23T01:24:33;6.50;99.90
22635;DHT22;11484;50.858;4.384;2024-02-23T01:26:59;6.50;99.90
22635;DHT22;11484;50.858;4.384;2024-02-23T01:29:25;6.60;99.90
22635;DHT22;11484;50.858;4.384;2024-02-23T01:31:52;6.60;99.90
22635;DHT22;11484;50.858;4.384;2024-02-23T01:34:21;6.60;99.90
22635;DHT22;11484;50.858;4.384;2024-02-23T01:36:47;6.50;99.90
22635;DHT22;11484;50.858;4.384;2024-02-23T01:39:13;6.50;99.90
22635;DHT22;11484;50.858;4.384;2024-02-23T01:41:39;6.50;99.90
22635;DHT22;11484;50.858;4.384;2024-02-23T01:44:04;6.60;99.90
22635;DHT22;11484;50.858;4.384;2024-02-23T01:46:30;6.70;99.90
22635;DHT22;11484;50.858;4.384;2024-02-23T01:48:57;6.70;99.90
22635;DHT22;11484;50.858;4.384;2024-02-23T01:51:24;6.70;99.90
22635;DHT22;11484;50.858;4.384;2024-02-23T01:53:51;6.90;99.90
22635;DHT22;11484;50.858;4.384;2024-02-23T01:56:17;7.00;99.90
22635;DHT22;11484;50.858;4.384;2024-02-23T01:58:43;7.00;99.90
22635;DHT22;11484;50.858;4.384;2024-02-23T02:01:10;6.90;99.90
22635;DHT22;11484;50.858;4.384;2024-02-23T02:03:37;6.80;99.90
22635;DHT22;11484;50.858;4.384;2024-02-23T02:06:07;6.80;99.90
22635;DHT22;11484;50.858;4.384;2024-02-23T02:08:36;6.90;99.90
22635;DHT22;11484;50.858;4.384;2024-02-23T02:11:02;6.90;99.90
22635;DHT22;11484;50.858;4.384;2024-02-23T02:13:31;6.80;99.90
22635;DHT22;11484;50.858;4.384;2024-02-23T02:16:00;6.90;99.90
22635;DHT22;11484;50.858;4.384;2024-02-23T02:18:26;7.00;99.90
22635;DHT22;11484;50.858;4.384;2024-02-23T02:20:55;7.20;99.90
22635;DHT22;11484;50.858;4.384;2024-02-23T02:23:22;7.30;99.90
22635;DHT22;11484;50.858;4.384;2024-02-23T02:25:57;7.40;99.90
22635;DHT22;11484;50.858;4.384;2024-02-23T02:28:23;7.20;99.90
22635;DHT22;11484;50.858;4.384;2024-02-23T02:30:50;7.20;99.90
22635;DHT22;11484;50.858;4.384;2024-02-23T02:33:16;7.10;99.90
22635;DHT22;11484;50.858;4.384;2024-02-23T02:35:42;7.10;99.90
22635;DHT22;11484;50.858;4.384;2024-02-23T02:38:08;7.20;99.90
22635;DHT22;11484;50.858;4.384;2024-02-23T02:40:33;7.30;99.90
22635;DHT22;11484;50.858;4.384;2024-02-23T02:42:59;7.30;99.90
22635;DHT22;11484;50.858;4.384;2024-02-23T02:45:24;7.30;99.90
22635;DHT22;11484;50.858;4.384;2024-02-23T02:47:50;7.40;99.90
22635;DHT22;11484;50.858;4.384;2024-02-23T02:50:16;7.40;99.90
22635;DHT22;11484;50.858;4.384;2024-02-23T02:52:42;7.40;99.90
22635;DHT22;11484;50.858;4.384;2024-02-23T02:55:08;7.30;99.90
22635;DHT22;11484;50.858;4.384;2024-02-23T02:57:34;7.30;99.90
22635;DHT22;11484;50.858;4.384;2024-02-23T03:00:02;7.30;99.90
22635;DHT22;11484;50.858;4.384;2024-02-23T03:02:31;7.30;99.90
22635;DHT22;11484;50.858;4.384;2024-02-23T03:04:56;7.20;99.90
22635;DHT22;11484;50.858;4.384;2024-02-23T03:07:22;7.10;99.90
22635;DHT22;11484;50.858;4.384;2024-02-23T03:09:48;7.10;99.90
22635;DHT22;11484;50.858;4.384;2024-02-23T03:12:16;7.10;99.90
22635;DHT22;11484;50.858;4.384;2024-02-23T03:14:42;7.20;99.90
22635;DHT22;11484;50.858;4.384;2024-02-23T03:17:08;7.20;99.90
22635;DHT22;11484;50.858;4.384;2024-02-23T03:19:35;7.10;99.90
22635;DHT22;11484;50.858;4.384;2024-02-23T03:22:01;7.10;99.90
22635;DHT22;11484;50.858;4.384;2024-02-23T03:24:26;7.10;99.90
22635;DHT22;11484;50.858;4.384;2024-02-23T03:26:52;7.20;99.90
22635;DHT22;11484;50.858;4.384;2024-02-23T03:29:18;7.30;99.90
22635;DHT22;11484;50.858;4.384;2024-02-23T03:31:43;7.30;99.90
22635;DHT22;11484;50.858;4.384;2024-02-23T03:34:09;7.30;99.90
22635;DHT22;11484;50.858;4.384;2024-02-23T03:36:36;7.30;99.90
22635;DHT22;11484;50.858;4.384;2024-02-23T03:39:02;7.30;99.90
22635;DHT22;11484;50.858;4.384;2024-02-23T03:41:28;7.30;99.90
22635;DHT22;11484;50.858;4.384;2024-02-23T03:43:53;7.30;99.90
22635;DHT22;11484;50.858;4.384;2024-02-23T03:46:19;7.30;99.90
22635;DHT22;11484;50.858;4.384;2024-02-23T03:48:45;7.20;99.90
22635;DHT22;11484;50.858;4.384;2024-02-23T03:51:11;7.10;99.90
22635;DHT22;11484;50.858;4.384;2024-02-23T03:53:37;7.00;99.90
22635;DHT22;11484;50.858;4.384;2024-02-23T03:56:03;7.00;99.90
22635;DHT22;11484;50.858;4.384;2024-02-23T03:58:29;6.90;99.90
22635;DHT22;11484;50.858;4.384;2024-02-23T04:00:55;6.90;99.90
22635;DHT22;11484;50.858;4.384;2024-02-23T04:03:20;6.90;99.90
22635;DHT22;11484;50.858;4.384;2024-02-23T04:05:46;7.00;99.90
22635;DHT22;11484;50.858;4.384;2024-02-23T04:08:12;7.20;99.90
22635;DHT22;11484;50.858;4.384;2024-02-23T04:10:38;7.10;99.90
22635;DHT22;11484;50.858;4.384;2024-02-23T04:13:04;7.30;99.90
22635;DHT22;11484;50.858;4.384;2024-02-23T04:15:29;7.40;99.90
22635;DHT22;11484;50.858;4.384;2024-02-23T04:17:55;7.40;99.90
22635;DHT22;11484;50.858;4.384;2024-02-23T04:20:21;7.50;99.90
22635;DHT22;11484;50.858;4.384;2024-02-23T04:22:47;7.50;99.90
22635;DHT22;11484;50.858;4.384;2024-02-23T04:25:12;7.50;99.90
22635;DHT22;11484;50.858;4.384;2024-02-23T04:27:38;7.40;99.90
22635;DHT22;11484;50.858;4.384;2024-02-23T04:30:05;7.40;99.90
22635;DHT22;11484;50.858;4.384;2024-02-23T04:32:31;7.40;99.90
22635;DHT22;11484;50.858;4.384;2024-02-23T04:34:57;7.30;99.90
22635;DHT22;11484;50.858;4.384;2024-02-23T04:37:22;7.30;99.90
22635;DHT22;11484;50.858;4.384;2024-02-23T04:39:48;7.20;99.90
22635;DHT22;11484;50.858;4.384;2024-02-23T04:42:14;7.10;99.90
22635;DHT22;11484;50.858;4.384;2024-02-23T04:44:42;7.10;99.90
22635;DHT22;11484;50.858;4.384;2024-02-23T04:47:08;7.10;99.90
22635;DHT22;11484;50.858;4.384;2024-02-23T04:49:34;7.10;99.90
22635;DHT22;11484;50.858;4.384;2024-02-23T04:52:00;7.10;99.90
22635;DHT22;11484;50.858;4.384;2024-02-23T04:54:26;7.10;99.90
22635;DHT22;11484;50.858;4.384;2024-02-23T04:56:52;7.10;99.90
22635;DHT22;11484;50.858;4.384;2024-02-23T04:59:18;7.10;99.90
22635;DHT22;11484;50.858;4.384;2024-02-23T05:01:43;7.20;99.90
22635;DHT22;11484;50.858;4.384;2024-02-23T05:04:09;7.10;99.90
22635;DHT22;11484;50.858;4.384;2024-02-23T05:06:35;7.10;99.90
22635;DHT22;11484;50.858;4.384;2024-02-23T05:09:01;7.00;99.90
22635;DHT22;11484;50.858;4.384;2024-02-23T05:11:28;7.10;99.90
22635;DHT22;11484;50.858;4.384;2024-02-23T05:13:54;7.10;99.90
22635;DHT22;11484;50.858;4.384;2024-02-23T05:16:20;7.10;99.90
22635;DHT22;11484;50.858;4.384;2024-02-23T05:18:45;7.10;99.90
22635;DHT22;11484;50.858;4.384;2024-02-23T05:21:14;7.10;99.90
22635;DHT22;11484;50.858;4.384;2024-02-23T05:23:40;7.10;99.90
22635;DHT22;11484;50.858;4.384;2024-02-23T05:26:08;7.00;99.90
22635;DHT22;11484;50.858;4.384;2024-02-23T05:28:33;7.00;99.90
22635;DHT22;11484;50.858;4.384;2024-02-23T05:31:01;7.00;99.90
22635;DHT22;11484;50.858;4.384;2024-02-23T05:33:27;7.00;99.90
22635;DHT22;11484;50.858;4.384;2024-02-23T05:35:53;7.00;99.90
22635;DHT22;11484;50.858;4.384;2024-02-23T05:38:18;7.00;99.90
22635;DHT22;11484;50.858;4.384;2024-02-23T05:40:44;7.00;99.90
22635;DHT22;11484;50.858;4.384;2024-02-23T05:43:10;7.00;99.90
22635;DHT22;11484;50.858;4.384;2024-02-23T05:45:36;7.10;99.90
22635;DHT22;11484;50.858;4.384;2024-02-23T05:48:02;7.10;99.90
22635;DHT22;11484;50.858;4.384;2024-02-23T05:50:28;7.10;99.90
22635;DHT22;11484;50.858;4.384;2024-02-23T05:52:54;7.10;99.90
22635;DHT22;11484;50.858;4.384;2024-02-23T05:55:19;7.10;99.90
22635;DHT22;11484;50.858;4.384;2024-02-23T05:57:45;7.10;99.90
22635;DHT22;11484;50.858;4.384;2024-02-23T06:00:11;7.10;99.90
22635;DHT22;11484;50.858;4.384;2024-02-23T06:02:38;7.00;99.90
22635;DHT22;11484;50.858;4.384;2024-02-23T06:05:05;7.00;99.90
22635;DHT22;11484;50.858;4.384;2024-02-23T06:07:33;7.00;99.90
22635;DHT22;11484;50.858;4.384;2024-02-23T06:10:00;6.90;99.90
22635;DHT22;11484;50.858;4.384;2024-02-23T06:12:26;7.00;99.90
22635;DHT22;11484;50.858;4.384;2024-02-23T06:14:52;6.90;99.90
22635;DHT22;11484;50.858;4.384;2024-02-23T06:17:18;6.90;99.90
22635;DHT22;11484;50.858;4.384;2024-02-23T06:19:44;7.00;99.90
22635;DHT22;11484;50.858;4.384;2024-02-23T06:22:09;7.00;99.90
22635;DHT22;11484;50.858;4.384;2024-02-23T06:24:36;7.10;99.90
22635;DHT22;11484;50.858;4.384;2024-02-23T06:27:02;7.10;99.90
22635;DHT22;11484;50.858;4.384;2024-02-23T06:29:29;7.10;99.90
22635;DHT22;11484;50.858;4.384;2024-02-23T06:31:55;7.00;99.90
22635;DHT22;11484;50.858;4.384;2024-02-23T06:34:21;7.10;99.90
22635;DHT22;11484;50.858;4.384;2024-02-23T06:36:47;7.10;99.90
22635;DHT22;11484;50.858;4.384;2024-02-23T06:39:13;7.10;99.90
22635;DHT22;11484;50.858;4.384;2024-02-23T06:41:39;7.20;99.90
22635;DHT22;11484;50.858;4.384;2024-02-23T06:44:05;7.20;99.90
22635;DHT22;11484;50.858;4.384;2024-02-23T06:46:31;7.10;99.90
22635;DHT22;11484;50.858;4.384;2024-02-23T06:48:56;7.20;99.90
22635;DHT22;11484;50.858;4.384;2024-02-23T06:51:22;7.20;99.90
22635;DHT22;11484;50.858;4.384;2024-02-23T06:53:48;7.20;99.90
22635;DHT22;11484;50.858;4.384;2024-02-23T06:56:14;7.30;99.90
22635;DHT22;11484;50.858;4.384;2024-02-23T06:58:40;7.30;99.90
22635;DHT22;11484;50.858;4.384;2024-02-23T07:01:06;7.30;99.90
22635;DHT22;11484;50.858;4.384;2024-02-23T07:03:33;7.30;99.90
22635;DHT22;11484;50.858;4.384;2024-02-23T07:06:00;7.40;99.90
22635;DHT22;11484;50.858;4.384;2024-02-23T07:08:26;7.40;99.90
22635;DHT22;11484;50.858;4.384;2024-02-23T07:10:52;7.50;99.90
22635;DHT22;11484;50.858;4.384;2024-02-23T07:13:17;7.40;99.90
22635;DHT22;11484;50.858;4.384;2024-02-23T07:15:45;7.40;99.90
22635;DHT22;11484;50.858;4.384;2024-02-23T07:18:11;7.50;99.90
22635;DHT22;11484;50.858;4.384;2024-02-23T07:20:37;7.50;99.90
22635;DHT22;11484;50.858;4.384;2024-02-23T07:23:02;7.50;99.90
22635;DHT22;11484;50.858;4.384;2024-02-23T07:25:28;7.40;99.90
22635;DHT22;11484;50.858;4.384;2024-02-23T07:27:55;7.50;99.90
22635;DHT22;11484;50.858;4.384;2024-02-23T07:30:21;7.50;99.90
22635;DHT22;11484;50.858;4.384;2024-02-23T07:32:48;7.50;99.90
22635;DHT22;11484;50.858;4.384;2024-02-23T07:35:14;7.60;99.90
22635;DHT22;11484;50.858;4.384;2024-02-23T07:37:40;7.70;99.90
22635;DHT22;11484;50.858;4.384;2024-02-23T07:40:06;7.70;99.90
22635;DHT22;11484;50.858;4.384;2024-02-23T07:42:33;7.80;99.90
22635;DHT22;11484;50.858;4.384;2024-02-23T07:45:04;7.80;99.90
22635;DHT22;11484;50.858;4.384;2024-02-23T07:47:34;7.90;99.90
22635;DHT22;11484;50.858;4.384;2024-02-23T07:50:00;8.00;99.90
22635;DHT22;11484;50.858;4.384;2024-02-23T07:52:26;8.10;99.90
22635;DHT22;11484;50.858;4.384;2024-02-23T07:54:52;8.10;99.90
22635;DHT22;11484;50.858;4.384;2024-02-23T07:57:21;8.10;99.90
22635;DHT22;11484;50.858;4.384;2024-02-23T07:59:47;8.10;99.90
22635;DHT22;11484;50.858;4.384;2024-02-23T08:02:15;8.10;99.90
22635;DHT22;11484;50.858;4.384;2024-02-23T08:04:41;8.10;99.90
22635;DHT22;11484;50.858;4.384;2024-02-23T08:07:08;8.10;99.90
22635;DHT22;11484;50.858;4.384;2024-02-23T08:09:33;7.90;99.90
22635;DHT22;11484;50.858;4.384;2024-02-23T08:11:59;7.80;99.90
22635;DHT22;11484;50.858;4.384;2024-02-23T08:14:25;7.70;99.90
22635;DHT22;11484;50.858;4.384;2024-02-23T08:16:50;7.60;99.90
22635;DHT22;11484;50.858;4.384;2024-02-23T08:19:16;7.50;99.90
22635;DHT22;11484;50.858;4.384;2024-02-23T08:21:42;7.40;99.90
22635;DHT22;11484;50.858;4.384;2024-02-23T08:24:09;7.30;99.90
22635;DHT22;11484;50.858;4.384;2024-02-23T08:26:36;7.20;99.90
22635;DHT22;11484;50.858;4.384;2024-02-23T08:29:04;7.10;99.90
22635;DHT22;11484;50.858;4.384;2024-02-23T08:31:30;7.10;99.90
22635;DHT22;11484;50.858;4.384;2024-02-23T08:33:56;7.30;99.90
22635;DHT22;11484;50.858;4.384;2024-02-23T08:36:21;7.20;99.90
22635;DHT22;11484;50.858;4.384;2024-02-23T08:38:47;7.00;99.90
22635;DHT22;11484;50.858;4.384;2024-02-23T08:41:13;7.00;99.90
22635;DHT22;11484;50.858;4.384;2024-02-23T08:43:38;6.90;99.90
22635;DHT22;11484;50.858;4.384;2024-02-23T08:46:04;6.90;99.90
22635;DHT22;11484;50.858;4.384;2024-02-23T08:48:30;7.00;99.90
22635;DHT22;11484;50.858;4.384;2024-02-23T08:50:56;7.00;99.90
22635;DHT22;11484;50.858;4.384;2024-02-23T08:53:21;7.00;99.90
22635;DHT22;11484;50.858;4.384;2024-02-23T08:55:47;6.90;99.90
22635;DHT22;11484;50.858;4.384;2024-02-23T08:58:13;6.90;99.90
22635;DHT22;11484;50.858;4.384;2024-02-23T09:00:39;6.90;99.90
22635;DHT22;11484;50.858;4.384;2024-02-23T09:03:05;6.90;99.90
22635;DHT22;11484;50.858;4.384;2024-02-23T09:05:31;6.90;99.90
22635;DHT22;11484;50.858;4.384;2024-02-23T09:07:56;7.00;99.90
22635;DHT22;11484;50.858;4.384;2024-02-23T09:10:22;7.00;99.90
22635;DHT22;11484;50.858;4.384;2024-02-23T09:12:48;7.00;99.90
22635;DHT22;11484;50.858;4.384;2024-02-23T09:15:14;6.90;99.90
22635;DHT22;11484;50.858;4.384;2024-02-23T09:17:42;6.90;99.90
22635;DHT22;11484;50.858;4.384;2024-02-23T09:20:09;6.90;99.90
22635;DHT22;11484;50.858;4.384;2024-02-23T09:22:35;7.00;99.90
22635;DHT22;11484;50.858;4.384;2024-02-23T09:25:02;7.00;99.90
22635;DHT22;11484;50.858;4.384;2024-02-23T09:27:28;7.00;99.90
22635;DHT22;11484;50.858;4.384;2024-02-23T09:29:54;7.20;99.90
22635;DHT22;11484;50.858;4.384;2024-02-23T09:32:20;7.30;99.90
22635;DHT22;11484;50.858;4.384;2024-02-23T09:34:46;7.40;99.90
22635;DHT22;11484;50.858;4.384;2024-02-23T09:37:18;7.50;99.90
22635;DHT22;11484;50.858;4.384;2024-02-23T09:39:43;7.60;99.90
22635;DHT22;11484;50.858;4.384;2024-02-23T09:42:10;7.60;99.90
22635;DHT22;11484;50.858;4.384;2024-02-23T09:44:39;7.70;99.90
22635;DHT22;11484;50.858;4.384;2024-02-23T09:47:07;7.70;99.90
22635;DHT22;11484;50.858;4.384;2024-02-23T09:49:40;7.80;99.90
22635;DHT22;11484;50.858;4.384;2024-02-23T09:52:07;7.90;99.90
22635;DHT22;11484;50.858;4.384;2024-02-23T09:54:33;8.00;99.90
22635;DHT22;11484;50.858;4.384;2024-02-23T09:57:00;8.10;99.90
22635;DHT22;11484;50.858;4.384;2024-02-23T09:59:26;8.30;99.90
22635;DHT22;11484;50.858;4.384;2024-02-23T10:01:53;8.20;99.90
22635;DHT22;11484;50.858;4.384;2024-02-23T10:04:19;8.20;99.90
22635;DHT22;11484;50.858;4.384;2024-02-23T10:06:45;8.20;99.90
22635;DHT22;11484;50.858;4.384;2024-02-23T10:09:11;8.30;99.90
22635;DHT22;11484;50.858;4.384;2024-02-23T10:11:39;8.40;99.90
22635;DHT22;11484;50.858;4.384;2024-02-23T10:14:04;8.30;99.90
22635;DHT22;11484;50.858;4.384;2024-02-23T10:16:30;8.40;99.90
22635;DHT22;11484;50.858;4.384;2024-02-23T10:18:57;8.50;99.90
22635;DHT22;11484;50.858;4.384;2024-02-23T10:21:27;8.50;99.90
22635;DHT22;11484;50.858;4.384;2024-02-23T10:23:53;8.60;99.90
22635;DHT22;11484;50.858;4.384;2024-02-23T10:26:20;8.70;99.90
22635;DHT22;11484;50.858;4.384;2024-02-23T10:28:48;8.80;99.90
22635;DHT22;11484;50.858;4.384;2024-02-23T10:31:13;8.80;99.90
22635;DHT22;11484;50.858;4.384;2024-02-23T10:33:40;8.90;99.90
22635;DHT22;11484;50.858;4.384;2024-02-23T10:36:07;9.20;99.90
22635;DHT22;11484;50.858;4.384;2024-02-23T10:38:38;9.30;99.90
22635;DHT22;11484;50.858;4.384;2024-02-23T10:41:24;9.40;99.90
22635;DHT22;11484;50.858;4.384;2024-02-23T10:43:50;9.50;99.90
22635;DHT22;11484;50.858;4.384;2024-02-23T10:46:19;9.50;99.90
22635;DHT22;11484;50.858;4.384;2024-02-23T10:48:48;9.20;99.90
22635;DHT22;11484;50.858;4.384;2024-02-23T10:51:15;9.10;99.90
22635;DHT22;11484;50.858;4.384;2024-02-23T10:53:44;9.10;99.90
22635;DHT22;11484;50.858;4.384;2024-02-23T10:56:12;9.00;99.90
22635;DHT22;11484;50.858;4.384;2024-02-23T10:58:39;9.10;99.90
22635;DHT22;11484;50.858;4.384;2024-02-23T11:01:07;9.20;99.90
22635;DHT22;11484;50.858;4.384;2024-02-23T11:03:36;9.30;99.90
22635;DHT22;11484;50.858;4.384;2024-02-23T11:06:06;9.30;99.90
22635;DHT22;11484;50.858;4.384;2024-02-23T11:08:35;9.40;99.90
22635;DHT22;11484;50.858;4.384;2024-02-23T11:11:11;9.60;99.90
22635;DHT22;11484;50.858;4.384;2024-02-23T11:13:38;9.60;99.90
22635;DHT22;11484;50.858;4.384;2024-02-23T11:16:08;9.70;99.90
22635;DHT22;11484;50.858;4.384;2024-02-23T11:18:35;9.70;99.90
22635;DHT22;11484;50.858;4.384;2024-02-23T11:21:03;9.60;99.90
22635;DHT22;11484;50.858;4.384;2024-02-23T11:23:47;9.50;99.90
22635;DHT22;11484;50.858;4.384;2024-02-23T11:26:17;9.50;99.90
22635;DHT22;11484;50.858;4.384;2024-02-23T11:28:54;9.50;99.90
22635;DHT22;11484;50.858;4.384;2024-02-23T11:31:21;9.50;99.90
22635;DHT22;11484;50.858;4.384;2024-02-23T11:33:55;9.40;99.90
22635;DHT22;11484;50.858;4.384;2024-02-23T11:36:39;9.60;99.90
22635;DHT22;11484;50.858;4.384;2024-02-23T11:39:05;9.60;99.90
22635;DHT22;11484;50.858;4.384;2024-02-23T11:41:31;9.70;99.90
22635;DHT22;11484;50.858;4.384;2024-02-23T11:43:58;9.80;99.90
22635;DHT22;11484;50.858;4.384;2024-02-23T11:46:23;9.80;99.90
22635;DHT22;11484;50.858;4.384;2024-02-23T11:48:50;9.80;99.90
22635;DHT22;11484;50.858;4.384;2024-02-23T11:51:22;9.80;99.90
22635;DHT22;11484;50.858;4.384;2024-02-23T11:53:49;9.60;99.90
22635;DHT22;11484;50.858;4.384;2024-02-23T11:56:16;9.50;99.90
22635;DHT22;11484;50.858;4.384;2024-02-23T11:58:44;9.40;99.90
22635;DHT22;11484;50.858;4.384;2024-02-23T12:01:09;9.40;99.90
22635;DHT22;11484;50.858;4.384;2024-02-23T12:03:36;9.40;99.90
22635;DHT22;11484;50.858;4.384;2024-02-23T12:06:05;9.50;99.90
22635;DHT22;11484;50.858;4.384;2024-02-23T12:08:33;9.60;99.90
22635;DHT22;11484;50.858;4.384;2024-02-23T12:11:25;9.70;99.90
22635;DHT22;11484;50.858;4.384;2024-02-23T12:13:50;9.90;99.90
22635;DHT22;11484;50.858;4.384;2024-02-23T12:16:21;9.90;99.90
22635;DHT22;11484;50.858;4.384;2024-02-23T12:18:53;9.90;99.90
22635;DHT22;11484;50.858;4.384;2024-02-23T12:21:20;9.90;99.90
22635;DHT22;11484;50.858;4.384;2024-02-23T12:23:49;10.00;99.90
22635;DHT22;11484;50.858;4.384;2024-02-23T12:26:17;10.20;99.90
22635;DHT22;11484;50.858;4.384;2024-02-23T12:28:44;10.20;99.90
22635;DHT22;11484;50.858;4.384;2024-02-23T12:31:10;10.10;99.90
22635;DHT22;11484;50.858;4.384;2024-02-23T12:33:38;10.00;99.90
22635;DHT22;11484;50.858;4.384;2024-02-23T12:36:14;10.00;99.90
22635;DHT22;11484;50.858;4.384;2024-02-23T12:38:40;10.20;99.90
22635;DHT22;11484;50.858;4.384;2024-02-23T12:41:06;10.30;99.90
22635;DHT22;11484;50.858;4.384;2024-02-23T12:43:32;10.20;99.90
22635;DHT22;11484;50.858;4.384;2024-02-23T12:45:58;10.30;99.90
22635;DHT22;11484;50.858;4.384;2024-02-23T12:48:24;10.50;99.90
22635;DHT22;11484;50.858;4.384;2024-02-23T12:50:50;10.60;99.90
22635;DHT22;11484;50.858;4.384;2024-02-23T12:53:36;10.60;99.90
22635;DHT22;11484;50.858;4.384;2024-02-23T12:56:07;10.60;99.90
22635;DHT22;11484;50.858;4.384;2024-02-23T12:58:36;10.70;99.90
22635;DHT22;11484;50.858;4.384;2024-02-23T13:01:03;10.70;99.90
22635;DHT22;11484;50.858;4.384;2024-02-23T13:03:28;10.60;99.90
22635;DHT22;11484;50.858;4.384;2024-02-23T13:05:57;10.50;99.90
22635;DHT22;11484;50.858;4.384;2024-02-23T13:08:23;10.50;99.90
22635;DHT22;11484;50.858;4.384;2024-02-23T13:10:50;10.30;99.90
22635;DHT22;11484;50.858;4.384;2024-02-23T13:13:16;10.30;99.90
22635;DHT22;11484;50.858;4.384;2024-02-23T13:15:43;10.10;99.90
22635;DHT22;11484;50.858;4.384;2024-02-23T13:18:08;10.10;99.90
22635;DHT22;11484;50.858;4.384;2024-02-23T13:20:35;10.20;99.90
22635;DHT22;11484;50.858;4.384;2024-02-23T13:23:01;10.30;99.90
22635;DHT22;11484;50.858;4.384;2024-02-23T13:25:27;10.40;99.90
22635;DHT22;11484;50.858;4.384;2024-02-23T13:27:53;10.40;99.90
22635;DHT22;11484;50.858;4.384;2024-02-23T13:30:21;10.60;99.90
22635;DHT22;11484;50.858;4.384;2024-02-23T13:32:47;10.60;99.90
22635;DHT22;11484;50.858;4.384;2024-02-23T13:35:12;10.50;99.90
22635;DHT22;11484;50.858;4.384;2024-02-23T13:37:52;10.40;99.90
22635;DHT22;11484;50.858;4.384;2024-02-23T13:40:18;10.30;99.90
22635;DHT22;11484;50.858;4.384;2024-02-23T13:42:44;10.30;99.90
22635;DHT22;11484;50.858;4.384;2024-02-23T13:45:16;10.30;99.90
22635;DHT22;11484;50.858;4.384;2024-02-23T13:47:43;10.30;99.90
22635;DHT22;11484;50.858;4.384;2024-02-23T13:50:10;10.30;99.90
22635;DHT22;11484;50.858;4.384;2024-02-23T13:52:36;10.40;99.90
22635;DHT22;11484;50.858;4.384;2024-02-23T13:55:02;10.50;99.90
22635;DHT22;11484;50.858;4.384;2024-02-23T13:57:28;10.50;99.90
22635;DHT22;11484;50.858;4.384;2024-02-23T13:59:54;10.50;99.90
22635;DHT22;11484;50.858;4.384;2024-02-23T14:02:28;10.70;99.90
22635;DHT22;11484;50.858;4.384;2024-02-23T14:05:00;10.70;99.90
22635;DHT22;11484;50.858;4.384;2024-02-23T14:07:27;10.90;99.90
22635;DHT22;11484;50.858;4.384;2024-02-23T14:09:53;10.80;99.90
22635;DHT22;11484;50.858;4.384;2024-02-23T14:12:19;10.80;99.90
22635;DHT22;11484;50.858;4.384;2024-02-23T14:14:45;10.80;99.90
22635;DHT22;11484;50.858;4.384;2024-02-23T14:17:10;10.80;99.90
22635;DHT22;11484;50.858;4.384;2024-02-23T14:19:38;10.90;99.90
22635;DHT22;11484;50.858;4.384;2024-02-23T14:22:04;11.10;99.90
22635;DHT22;11484;50.858;4.384;2024-02-23T14:24:30;11.30;99.90
22635;DHT22;11484;50.858;4.384;2024-02-23T14:26:56;11.00;99.90
22635;DHT22;11484;50.858;4.384;2024-02-23T14:29:24;10.90;99.90
22635;DHT22;11484;50.858;4.384;2024-02-23T14:31:50;10.90;99.90
22635;DHT22;11484;50.858;4.384;2024-02-23T14:34:16;10.90;99.90
22635;DHT22;11484;50.858;4.384;2024-02-23T14:36:43;10.80;99.90
22635;DHT22;11484;50.858;4.384;2024-02-23T14:39:09;10.90;99.90
22635;DHT22;11484;50.858;4.384;2024-02-23T14:41:38;11.00;99.90
22635;DHT22;11484;50.858;4.384;2024-02-23T14:44:04;11.00;99.90
22635;DHT22;11484;50.858;4.384;2024-02-23T14:46:30;10.90;99.90
22635;DHT22;11484;50.858;4.384;2024-02-23T14:48:58;10.90;99.90
22635;DHT22;11484;50.858;4.384;2024-02-23T14:51:24;10.90;99.90
22635;DHT22;11484;50.858;4.384;2024-02-23T14:54:08;10.70;99.90
22635;DHT22;11484;50.858;4.384;2024-02-23T14:56:34;10.80;99.90
22635;DHT22;11484;50.858;4.384;2024-02-23T14:59:00;11.00;99.90
22635;DHT22;11484;50.858;4.384;2024-02-23T15:01:31;11.00;99.90
22635;DHT22;11484;50.858;4.384;2024-02-23T15:03:57;10.90;99.90
22635;DHT22;11484;50.858;4.384;2024-02-23T15:06:23;10.80;99.90
22635;DHT22;11484;50.858;4.384;2024-02-23T15:08:49;10.80;99.90
22635;DHT22;11484;50.858;4.384;2024-02-23T15:11:15;10.80;99.90
22635;DHT22;11484;50.858;4.384;2024-02-23T15:13:41;10.90;99.90
22635;DHT22;11484;50.858;4.384;2024-02-23T15:16:07;10.80;99.90
22635;DHT22;11484;50.858;4.384;2024-02-23T15:18:33;10.90;99.90
22635;DHT22;11484;50.858;4.384;2024-02-23T15:20:58;11.00;99.90
22635;DHT22;11484;50.858;4.384;2024-02-23T15:23:24;10.90;99.90
22635;DHT22;11484;50.858;4.384;2024-02-23T15:25:50;10.80;99.90
22635;DHT22;11484;50.858;4.384;2024-02-23T15:28:16;10.70;99.90
22635;DHT22;11484;50.858;4.384;2024-02-23T15:30:49;10.60;99.90
22635;DHT22;11484;50.858;4.384;2024-02-23T15:33:15;10.50;99.90
22635;DHT22;11484;50.858;4.384;2024-02-23T15:35:40;10.50;99.90
22635;DHT22;11484;50.858;4.384;2024-02-23T15:38:06;10.60;99.90
22635;DHT22;11484;50.858;4.384;2024-02-23T15:40:33;10.60;99.90